createdAt,value
2022-10-11T00:01:20.543Z,2.00
2022-10-11T00:03:47.260Z,1.73
2022-10-11T00:06:13.756Z,1.55
2022-10-11T00:08:40.283Z,1.63
2022-10-11T00:11:07.929Z,1.58
2022-10-11T00:13:34.970Z,1.63
2022-10-11T00:16:06.633Z,1.80
2022-10-11T00:18:33.356Z,1.58
2022-10-11T00:21:02.201Z,1.50
2022-10-11T00:23:28.845Z,1.73
2022-10-11T00:26:00.183Z,1.10
2022-10-11T00:28:26.905Z,1.70
2022-10-11T00:30:53.608Z,1.30
2022-10-11T00:33:20.236Z,1.40
2022-10-11T00:35:46.783Z,1.25
2022-10-11T00:38:13.442Z,1.88
2022-10-11T00:40:40.163Z,1.42
2022-10-11T00:43:19.472Z,1.83
2022-10-11T00:45:58.335Z,2.13
2022-10-11T00:48:44.526Z,2.38
2022-10-11T00:51:23.506Z,2.20
2022-10-11T00:53:51.470Z,2.55
2022-10-11T00:56:24.887Z,2.60
2022-10-11T00:58:52.742Z,2.95
2022-10-11T01:01:19.492Z,2.38
2022-10-11T01:03:46.995Z,2.85
2022-10-11T01:06:13.651Z,3.28
2022-10-11T01:08:40.555Z,3.83
2022-10-11T01:11:12.187Z,4.43
2022-10-11T01:14:03.176Z,3.70
2022-10-11T01:16:39.398Z,4.75
2022-10-11T01:19:08.923Z,4.18
2022-10-11T01:21:48.577Z,4.63
2022-10-11T01:30:03.802Z,4.90
2022-10-11T01:33:02.677Z,5.88
2022-10-11T01:35:49.186Z,4.93
2022-10-11T01:38:34.918Z,4.80
2022-10-11T01:41:10.179Z,4.45
2022-10-11T01:43:39.345Z,5.35
2022-10-11T01:46:08.617Z,6.32
2022-10-11T01:48:56.843Z,4.88
2022-10-11T01:51:29.939Z,5.20
2022-10-11T01:54:04.180Z,6.13
2022-10-11T01:56:52.042Z,6.72
2022-10-11T01:59:37.173Z,6.10
2022-10-11T02:02:40.953Z,5.60
2022-10-11T02:05:19.783Z,6.15
2022-10-11T02:07:58.676Z,5.72
2022-10-11T02:10:35.924Z,6.03
2022-10-11T02:13:09.402Z,5.13
2022-10-11T02:15:40.413Z,4.57
2022-10-11T02:18:15.997Z,5.15
2022-10-11T02:20:45.073Z,5.20
2022-10-11T02:23:23.308Z,4.65
2022-10-11T02:25:51.937Z,5.53
2022-10-11T02:28:25.650Z,4.80
2022-10-11T02:30:54.647Z,5.28
2022-10-11T02:33:27.378Z,4.68
2022-10-11T02:36:01.092Z,4.68
2022-10-11T02:38:34.167Z,5.10
2022-10-11T02:41:21.431Z,5.95
2022-10-11T02:43:57.555Z,6.18
2022-10-11T02:46:26.558Z,5.82
2022-10-11T02:48:54.060Z,5.03
2022-10-11T02:51:20.646Z,4.90
2022-10-11T02:53:47.497Z,5.00
2022-10-11T02:56:14.034Z,5.32
2022-10-11T02:58:40.628Z,5.40
2022-10-11T03:01:07.210Z,6.07
2022-10-11T03:03:33.810Z,5.72
2022-10-11T03:06:02.823Z,5.13
2022-10-11T03:08:29.877Z,4.68
2022-10-11T03:10:56.443Z,5.15
2022-10-11T03:13:23.112Z,4.93
2022-10-11T03:16:02.810Z,5.35
2022-10-11T03:18:34.014Z,5.40
2022-10-11T03:21:00.696Z,4.82
2022-10-11T03:23:27.343Z,6.10
2022-10-11T03:25:53.949Z,5.90
2022-10-11T03:28:21.285Z,5.38
2022-10-11T03:30:49.441Z,5.97
2022-10-11T03:33:17.160Z,6.05
2022-10-11T03:35:45.652Z,6.03
2022-10-11T03:38:22.126Z,5.78
2022-10-11T03:40:48.929Z,5.45
2022-10-11T03:43:15.924Z,6.95
2022-10-11T03:45:42.613Z,5.45
2022-10-11T03:48:09.744Z,5.95
2022-10-11T03:50:37.090Z,5.50
2022-10-11T03:53:05.037Z,5.75
2022-10-11T03:55:31.733Z,5.35
2022-10-11T03:57:58.306Z,5.38
2022-10-11T04:00:25.036Z,5.00
2022-10-11T04:02:51.536Z,4.97
2022-10-11T04:05:18.214Z,5.15
2022-10-11T04:07:44.812Z,5.07
2022-10-11T04:10:11.422Z,4.90
2022-10-11T04:12:39.132Z,4.90
2022-10-11T04:15:07.010Z,4.35
2022-10-11T04:17:33.628Z,4.13
2022-10-11T04:20:00.169Z,5.30
2022-10-11T04:22:26.764Z,4.95
2022-10-11T04:24:53.351Z,5.35
2022-10-11T04:27:19.991Z,6.32
2022-10-11T04:29:46.588Z,5.82
2022-10-11T04:32:13.144Z,5.32
2022-10-11T04:34:39.758Z,5.32
2022-10-11T04:37:06.409Z,6.18
2022-10-11T04:39:33.067Z,6.85
2022-10-11T04:41:59.611Z,7.10
2022-10-11T04:44:26.160Z,7.38
2022-10-11T04:46:53.041Z,7.45
2022-10-11T04:49:19.698Z,7.00
2022-10-11T04:51:46.220Z,7.30
2022-10-11T04:54:12.813Z,8.18
2022-10-11T04:56:39.622Z,8.43
2022-10-11T04:59:06.335Z,8.43
2022-10-11T05:01:33.075Z,9.30
2022-10-11T05:03:59.926Z,8.05
2022-10-11T05:06:26.622Z,7.25
2022-10-11T05:08:53.161Z,9.10
2022-10-11T05:11:19.877Z,7.80
2022-10-11T05:13:46.834Z,8.00
2022-10-11T05:16:14.625Z,9.25
2022-10-11T05:18:41.621Z,8.05
2022-10-11T05:21:14.413Z,7.75
2022-10-11T05:23:41.187Z,7.95
2022-10-11T05:26:08.206Z,8.43
2022-10-11T05:28:35.211Z,8.25
2022-10-11T05:31:01.838Z,8.75
2022-10-11T05:33:28.576Z,8.40
2022-10-11T05:35:55.210Z,8.80
2022-10-11T05:38:22.767Z,8.30
2022-10-11T05:40:50.129Z,8.25
2022-10-11T05:43:16.730Z,8.27
2022-10-11T05:45:44.556Z,8.23
2022-10-11T05:48:11.532Z,7.22
2022-10-11T05:50:39.218Z,7.03
2022-10-11T05:53:06.269Z,7.32
2022-10-11T05:55:40.590Z,7.45
2022-10-11T05:58:14.432Z,7.50
2022-10-11T06:00:41.326Z,8.65
2022-10-11T06:03:10.927Z,8.77
2022-10-11T06:05:37.861Z,9.40
2022-10-11T06:08:06.056Z,8.10
2022-10-11T06:10:33.093Z,9.13
2022-10-11T06:12:59.799Z,8.68
2022-10-11T06:15:26.745Z,8.45
2022-10-11T06:17:53.389Z,8.90
2022-10-11T06:20:19.984Z,10.05
2022-10-11T06:22:46.534Z,8.88
2022-10-11T06:25:13.118Z,8.35
2022-10-11T06:27:39.668Z,7.80
2022-10-11T06:30:07.351Z,8.57
2022-10-11T06:32:33.932Z,8.70
2022-10-11T06:35:00.526Z,7.43
2022-10-11T06:37:27.093Z,8.88
2022-10-11T06:39:53.663Z,9.25
2022-10-11T06:42:20.275Z,9.60
2022-10-11T06:44:46.902Z,9.00
2022-10-11T06:47:13.470Z,10.50
2022-10-11T06:49:40.020Z,10.02
2022-10-11T06:52:06.573Z,9.48
2022-10-11T06:54:33.145Z,9.55
2022-10-11T06:57:00.131Z,10.40
2022-10-11T06:59:26.644Z,10.48
2022-10-11T07:01:53.179Z,10.90
2022-10-11T07:04:19.680Z,10.15
2022-10-11T07:06:46.303Z,10.57
2022-10-11T07:09:12.982Z,12.38
2022-10-11T07:11:39.700Z,11.55
2022-10-11T07:14:07.996Z,9.55
2022-10-11T07:16:36.190Z,11.32
2022-10-11T07:19:04.753Z,9.98
2022-10-11T07:21:33.341Z,10.32
2022-10-11T07:24:00.352Z,9.75
2022-10-11T07:26:27.590Z,9.13
2022-10-11T07:28:54.287Z,8.77
2022-10-11T07:31:23.673Z,9.15
2022-10-11T07:33:50.250Z,9.40
2022-10-11T07:36:16.958Z,8.45
2022-10-11T07:38:45.534Z,7.93
2022-10-11T07:41:12.961Z,8.68
2022-10-11T07:43:40.137Z,9.43
2022-10-11T07:46:07.686Z,8.68
2022-10-11T07:48:36.518Z,8.55
2022-10-11T07:51:15.799Z,9.15
2022-10-11T07:53:44.527Z,9.07
2022-10-11T07:56:13.094Z,10.03
2022-10-11T07:58:41.284Z,9.98
2022-10-11T08:01:09.216Z,11.38
2022-10-11T08:03:37.149Z,10.73
2022-10-11T08:06:07.465Z,9.80
2022-10-11T08:08:34.596Z,9.30
2022-10-11T08:11:01.299Z,8.98
2022-10-11T08:13:28.199Z,9.15
2022-10-11T08:15:55.210Z,9.38
2022-10-11T08:18:21.898Z,10.25
2022-10-11T08:20:48.752Z,9.77
2022-10-11T08:23:17.295Z,10.35
2022-10-11T08:25:46.311Z,9.57
2022-10-11T08:28:20.876Z,10.20
2022-10-11T08:30:49.716Z,9.73
2022-10-11T08:33:17.761Z,11.47
2022-10-11T08:35:45.115Z,12.48
2022-10-11T08:38:11.922Z,12.75
2022-10-11T08:40:45.707Z,11.68
2022-10-11T08:43:26.025Z,12.32
2022-10-11T08:45:56.051Z,13.65
2022-10-11T08:48:41.573Z,11.05
2022-10-11T08:51:30.641Z,11.32
2022-10-11T08:54:07.221Z,11.27
2022-10-11T08:56:37.710Z,12.60
2022-10-11T08:59:09.304Z,12.48
2022-10-11T09:01:36.087Z,13.27
2022-10-11T09:04:03.651Z,12.40
2022-10-11T09:06:54.060Z,13.07
2022-10-11T09:09:50.032Z,13.32
2022-10-11T09:12:40.501Z,13.48
2022-10-11T09:15:24.424Z,13.75
2022-10-11T09:17:58.853Z,14.45
2022-10-11T09:20:31.451Z,15.23
2022-10-11T09:23:01.803Z,15.02
2022-10-11T09:25:34.928Z,13.80
2022-10-11T09:28:40.370Z,13.95
2022-10-11T09:31:10.010Z,15.30
2022-10-11T09:33:41.910Z,16.85
2022-10-11T09:36:44.393Z,15.43
2022-10-11T09:39:37.119Z,15.48
2022-10-11T09:42:11.501Z,15.90
2022-10-11T09:44:49.887Z,16.20
2022-10-11T09:47:24.269Z,16.95
2022-10-11T09:49:56.538Z,15.70
2022-10-11T09:52:24.095Z,15.85
2022-10-11T09:54:54.549Z,17.95
2022-10-11T09:57:25.982Z,16.25
2022-10-11T10:00:00.418Z,15.60
2022-10-11T10:02:38.312Z,16.67
2022-10-11T10:05:19.197Z,16.05
2022-10-11T10:08:10.372Z,14.63
2022-10-11T10:10:48.680Z,14.95
2022-10-11T10:13:25.502Z,14.35
2022-10-11T10:15:55.033Z,14.35
2022-10-11T10:18:33.269Z,13.55
2022-10-11T10:21:00.935Z,16.42
2022-10-11T10:23:34.753Z,16.55
2022-10-11T10:26:12.514Z,15.38
2022-10-11T10:28:53.514Z,17.33
2022-10-11T10:31:26.416Z,17.45
2022-10-11T10:33:54.630Z,15.85
2022-10-11T10:36:30.006Z,16.52
2022-10-11T10:39:05.861Z,16.88
2022-10-11T10:41:32.724Z,17.20
2022-10-11T10:44:00.620Z,16.75
2022-10-11T10:46:47.320Z,16.90
2022-10-11T10:52:29.352Z,18.60
2022-10-11T10:55:05.016Z,18.15
2022-10-11T10:57:40.838Z,17.88
2022-10-11T11:00:19.434Z,17.38
2022-10-11T11:02:52.380Z,20.93
2022-10-11T11:05:37.882Z,23.90
2022-10-11T11:08:16.607Z,21.15
2022-10-11T11:11:01.390Z,19.20
2022-10-11T11:13:40.677Z,16.70
2022-10-11T11:16:07.662Z,17.00
2022-10-11T11:18:51.781Z,17.13
2022-10-11T11:21:53.996Z,16.42
2022-10-11T11:24:51.630Z,14.93
2022-10-11T11:27:39.995Z,14.73
2022-10-11T11:30:09.660Z,14.98
2022-10-11T11:35:24.644Z,13.75
2022-10-11T11:38:00.303Z,12.73
2022-10-11T11:40:39.346Z,11.70
2022-10-11T11:43:26.966Z,11.80
2022-10-11T11:45:58.299Z,11.68
2022-10-11T11:48:26.681Z,11.27
2022-10-11T11:51:12.965Z,11.23
2022-10-11T11:54:15.307Z,18.20
2022-10-11T11:56:44.967Z,16.95
2022-10-11T12:02:03.805Z,13.50
2022-10-11T12:04:35.916Z,12.82
2022-10-11T12:07:16.337Z,12.88
2022-10-11T12:09:50.285Z,11.85
2022-10-11T12:12:36.118Z,12.15
2022-10-11T12:15:25.747Z,11.80
2022-10-11T12:17:58.154Z,9.20
2022-10-11T12:20:24.629Z,8.70
2022-10-11T12:23:01.308Z,8.57
2022-10-11T12:25:28.735Z,7.90
2022-10-11T12:28:21.080Z,8.60
2022-10-11T12:30:47.777Z,7.97
2022-10-11T12:33:21.311Z,7.22
2022-10-11T12:35:56.429Z,6.43
2022-10-11T12:38:34.481Z,5.90
2022-10-11T12:41:10.222Z,5.80
2022-10-11T12:44:09.040Z,6.63
2022-10-11T12:47:00.136Z,4.65
2022-10-11T12:49:46.029Z,5.30
2022-10-11T12:52:18.301Z,5.05
2022-10-11T12:54:51.877Z,4.82
2022-10-11T12:57:45.196Z,3.75
2022-10-11T13:00:27.878Z,3.53
2022-10-11T13:02:56.586Z,3.17
2022-10-11T13:05:23.105Z,3.60
2022-10-11T13:07:51.544Z,2.42
2022-10-11T13:10:25.022Z,3.20
2022-10-11T13:12:53.337Z,3.05
2022-10-11T13:15:22.630Z,2.58
2022-10-11T13:17:51.704Z,2.70
2022-10-11T13:20:23.769Z,2.90
2022-10-11T13:22:53.096Z,3.05
2022-10-11T13:27:51.219Z,3.20
2022-10-11T13:32:52.066Z,2.97
2022-10-11T13:35:34.423Z,2.38
2022-10-11T13:38:01.611Z,3.28
2022-10-11T13:40:29.483Z,2.33
2022-10-11T13:42:56.896Z,2.75
2022-10-11T13:45:26.148Z,2.75
2022-10-11T13:47:55.674Z,2.63
2022-10-11T13:53:22.873Z,2.60
2022-10-11T13:56:02.545Z,2.45
2022-10-11T13:58:42.438Z,2.00
2022-10-11T14:01:20.916Z,2.78
2022-10-11T14:03:55.813Z,2.65
2022-10-11T14:06:22.870Z,2.72
2022-10-11T14:08:56.722Z,2.38
2022-10-11T14:11:39.222Z,2.08
2022-10-11T14:14:29.189Z,2.65
2022-10-11T14:16:57.703Z,2.35
2022-10-11T14:19:24.429Z,2.42
2022-10-11T14:21:53.323Z,2.35
2022-10-11T14:24:21.713Z,2.55
2022-10-11T14:26:51.758Z,2.30
2022-10-11T14:29:31.076Z,1.98
2022-10-11T14:32:10.709Z,1.83
2022-10-11T14:34:37.771Z,2.63
2022-10-11T14:37:04.331Z,2.58
2022-10-11T14:39:32.477Z,2.10
2022-10-11T14:41:59.350Z,2.30
2022-10-11T14:44:26.190Z,2.08
2022-10-11T14:46:54.655Z,2.17
2022-10-11T14:49:25.135Z,2.00
2022-10-11T14:51:53.243Z,1.73
2022-10-11T14:54:24.244Z,2.83
2022-10-11T14:56:52.522Z,2.22
2022-10-11T14:59:21.777Z,2.28
2022-10-11T15:01:51.970Z,2.05
2022-10-11T15:04:22.144Z,2.22
2022-10-11T15:06:49.329Z,2.28
2022-10-11T15:09:17.089Z,2.30
2022-10-11T15:11:43.772Z,2.28
2022-10-11T15:14:10.266Z,2.10
2022-10-11T15:16:36.902Z,1.83
2022-10-11T15:19:03.730Z,2.00
2022-10-11T15:21:30.482Z,3.10
2022-10-11T15:23:57.108Z,2.00
2022-10-11T15:26:30.014Z,2.33
2022-10-11T15:28:57.770Z,2.55
2022-10-11T15:31:24.627Z,2.40
2022-10-11T15:33:51.426Z,2.08
2022-10-11T15:36:22.293Z,1.83
2022-10-11T15:38:49.414Z,1.88
2022-10-11T15:41:18.734Z,2.30
2022-10-11T15:43:47.013Z,1.80
2022-10-11T15:46:17.444Z,2.22
2022-10-11T15:48:45.287Z,1.92
2022-10-11T15:51:11.929Z,1.90
2022-10-11T15:53:39.619Z,2.42
2022-10-11T15:56:15.160Z,2.05
2022-10-11T15:58:42.099Z,2.03
2022-10-11T16:01:13.541Z,2.05
2022-10-11T16:03:40.540Z,2.03
2022-10-11T16:06:08.565Z,2.55
2022-10-11T16:08:36.015Z,6.00
2022-10-11T16:11:03.606Z,4.00
2022-10-11T16:13:30.334Z,4.10
2022-10-11T16:15:56.997Z,3.97
2022-10-11T16:18:24.031Z,3.33
2022-10-11T16:20:52.004Z,3.47
2022-10-11T16:23:20.898Z,3.47
2022-10-11T16:25:56.962Z,3.88
2022-10-11T16:28:23.762Z,3.92
2022-10-11T16:30:50.614Z,4.47
2022-10-11T16:33:17.140Z,5.10
2022-10-11T16:35:43.798Z,4.82
2022-10-11T16:38:12.802Z,5.35
2022-10-11T16:40:40.368Z,4.82
2022-10-11T16:43:08.170Z,4.57
2022-10-11T16:45:35.855Z,5.22
2022-10-11T16:48:03.866Z,4.07
2022-10-11T16:50:31.740Z,4.45
2022-10-11T16:53:00.054Z,3.65
2022-10-11T16:55:26.714Z,4.38
2022-10-11T16:57:53.271Z,3.83
2022-10-11T17:00:25.316Z,4.13
2022-10-11T17:05:50.115Z,4.05
2022-10-11T17:08:27.827Z,3.50
2022-10-11T17:11:32.512Z,4.18
2022-10-11T17:14:28.177Z,4.05
2022-10-11T17:16:56.138Z,4.88
2022-10-11T17:22:27.564Z,4.80
2022-10-11T17:24:54.438Z,4.32
2022-10-11T17:27:31.895Z,5.70
2022-10-11T17:30:10.954Z,5.28
2022-10-11T17:32:47.598Z,4.78
2022-10-11T17:35:14.666Z,5.15
2022-10-11T17:44:17.046Z,5.60
2022-10-11T17:50:38.441Z,5.93
2022-10-11T17:54:08.292Z,7.38
2022-10-11T17:59:42.488Z,7.75
2022-10-11T18:02:10.330Z,7.85
2022-10-11T18:04:37.676Z,7.90
2022-10-11T18:07:04.690Z,8.98
2022-10-11T18:09:33.204Z,9.90
2022-10-11T18:12:00.439Z,10.10
2022-10-11T18:14:27.698Z,11.27
2022-10-11T18:16:54.653Z,14.70
2022-10-11T18:19:22.178Z,15.88
2022-10-11T18:22:07.037Z,16.25
2022-10-11T18:24:55.959Z,17.57
2022-10-11T18:27:22.717Z,17.73
2022-10-11T18:29:49.376Z,17.48
2022-10-11T18:32:25.451Z,19.15
2022-10-11T18:34:57.916Z,24.50
2022-10-11T18:37:26.773Z,22.30
2022-10-11T18:39:54.252Z,22.63
2022-10-11T18:42:21.744Z,21.92
2022-10-11T18:44:49.695Z,20.92
2022-10-11T18:47:17.931Z,20.10
2022-10-11T18:49:44.494Z,16.67
2022-10-11T18:52:11.317Z,16.42
2022-10-11T18:54:39.717Z,18.00
2022-10-11T18:57:09.867Z,16.40
2022-10-11T18:59:37.556Z,14.90
2022-10-11T19:02:05.126Z,17.45
2022-10-11T19:04:34.619Z,18.38
2022-10-11T19:07:02.959Z,20.13
2022-10-11T19:09:31.070Z,20.00
2022-10-11T19:11:58.790Z,17.02
2022-10-11T19:14:30.409Z,15.02
2022-10-11T19:17:00.114Z,13.60
2022-10-11T19:19:29.418Z,13.07
2022-10-11T19:21:57.839Z,12.45
2022-10-11T19:24:27.355Z,11.15
2022-10-11T19:29:28.722Z,10.30
2022-10-11T19:31:57.822Z,13.05
2022-10-11T19:34:31.318Z,11.85
2022-10-11T19:37:00.667Z,12.95
2022-10-11T19:39:28.033Z,17.23
2022-10-11T19:41:54.855Z,16.15
2022-10-11T19:44:21.540Z,15.75
2022-10-11T19:46:52.483Z,14.57
2022-10-11T19:49:22.754Z,13.50
2022-10-11T19:54:17.070Z,13.27
2022-10-11T19:56:44.679Z,12.07
2022-10-11T19:59:12.141Z,11.95
2022-10-11T20:01:39.965Z,11.68
2022-10-11T20:04:22.612Z,12.27
2022-10-11T20:06:56.727Z,12.77
2022-10-11T20:09:31.081Z,13.20
2022-10-11T20:11:58.523Z,12.55
2022-10-11T20:14:25.289Z,12.77
2022-10-11T20:16:52.011Z,13.32
2022-10-11T20:19:18.793Z,8.60
2022-10-11T20:21:45.521Z,8.88
2022-10-11T20:24:12.381Z,9.07
2022-10-11T20:26:39.534Z,8.55
2022-10-11T20:29:06.475Z,8.70
2022-10-11T20:31:38.448Z,9.05
2022-10-11T20:34:07.259Z,8.80
2022-10-11T20:36:35.798Z,9.60
2022-10-11T20:39:02.552Z,9.27
2022-10-11T20:41:31.819Z,10.25
2022-10-11T20:43:59.888Z,7.95
2022-10-11T20:46:29.817Z,10.23
2022-10-11T20:49:08.141Z,9.98
2022-10-11T20:51:38.551Z,9.60
2022-10-11T20:54:05.457Z,11.02
2022-10-11T20:56:32.271Z,10.05
2022-10-11T20:58:59.413Z,11.90
2022-10-11T21:01:29.038Z,10.20
2022-10-11T21:06:24.201Z,10.02
2022-10-11T21:08:50.826Z,10.80
2022-10-11T21:11:17.415Z,10.70
2022-10-11T21:13:44.026Z,10.73
2022-10-11T21:16:16.056Z,10.68
2022-10-11T21:18:43.060Z,9.55
2022-10-11T21:21:14.608Z,9.02
2022-10-11T21:23:41.495Z,10.38
2022-10-11T21:26:11.299Z,10.40
2022-10-11T21:28:38.827Z,10.30
2022-10-11T21:31:10.997Z,9.85
2022-10-11T21:33:41.209Z,10.25
2022-10-11T21:36:11.250Z,9.20
2022-10-11T21:38:38.270Z,10.95
2022-10-11T21:41:06.882Z,10.60
2022-10-11T21:43:35.816Z,11.07
2022-10-11T21:46:47.955Z,11.30
2022-10-11T21:49:16.852Z,10.35
2022-10-11T21:51:43.492Z,10.75
2022-10-11T21:54:10.034Z,10.20
2022-10-11T21:56:36.650Z,10.68
2022-10-11T21:59:06.602Z,10.70
2022-10-11T22:01:36.765Z,10.48
2022-10-11T22:04:07.460Z,10.40
2022-10-11T22:06:34.974Z,10.75
2022-10-11T22:09:01.813Z,11.05
2022-10-11T22:11:28.489Z,10.85
2022-10-11T22:13:55.228Z,9.88
2022-10-11T22:16:21.794Z,11.18
2022-10-11T22:18:48.414Z,10.23
2022-10-11T22:21:18.110Z,10.82
2022-10-11T22:26:16.267Z,9.23
2022-10-11T22:28:43.338Z,9.90
2022-10-11T22:31:10.346Z,11.63
2022-10-11T22:33:37.463Z,10.55
2022-10-11T22:36:10.078Z,9.93
2022-10-11T22:38:38.382Z,9.77
2022-10-11T22:41:05.422Z,9.00
2022-10-11T22:43:32.400Z,8.52
2022-10-11T22:45:59.005Z,8.60
2022-10-11T22:48:25.763Z,8.75
2022-10-11T22:50:52.450Z,7.40
2022-10-11T22:53:19.392Z,8.85
2022-10-11T22:55:46.585Z,7.82
2022-10-11T22:58:13.513Z,7.70
2022-10-11T23:00:40.096Z,7.25
2022-10-11T23:03:09.624Z,8.90
2022-10-11T23:05:36.448Z,8.68
2022-10-11T23:08:02.979Z,7.55
2022-10-11T23:10:29.544Z,8.10
2022-10-11T23:12:56.129Z,7.95
2022-10-11T23:15:22.732Z,9.13
2022-10-11T23:17:49.329Z,8.10
2022-10-11T23:20:15.908Z,7.57
2022-10-11T23:22:42.434Z,7.25
2022-10-11T23:25:09.221Z,7.97
2022-10-11T23:27:36.111Z,7.72
2022-10-11T23:30:03.780Z,8.50
2022-10-11T23:32:30.537Z,7.95
2022-10-11T23:34:57.164Z,7.38
2022-10-11T23:37:23.759Z,8.05
2022-10-11T23:39:50.272Z,8.07
2022-10-11T23:42:16.785Z,6.97
2022-10-11T23:44:43.340Z,8.13
2022-10-11T23:47:09.894Z,7.47
2022-10-11T23:49:36.454Z,6.95
2022-10-11T23:52:03.015Z,6.95
2022-10-11T23:54:29.583Z,6.20
2022-10-11T23:56:56.272Z,7.18
2022-10-11T23:59:22.864Z,6.00
